Carnival Miracle — H3VS — position and weather

sailwx.info

Track history (hours):
 
Tides and Currents Weather Stations Pressure Air Temp Water Temp Dewpoint Dewpoint Depression Visibility Wind Speed Wind Dir Waves Ship Positions

Carnival Miracle

Operator: Carnival Cruise Lines

Last reported at 2020-Apr-05 06:29 UTC. Time now 2020-Apr-05 06:36 UTC.
Position N 33°41' W 118°09'.

Type: Ship. MMSI: 35437000.

Date/timePositionNaut miles runAvg speedWind from/ knotsBaromVisibWave heightAir tempDewpointWater temp
2020-Apr-05 06:29N 33°41' W 118°09'6 1.7
2020-Apr-05 03:00N 33°36' W 118°06'6 3.8 220 / 51008.6 15.0 9.716.0
2020-Apr-05 01:29N 33°41' W 118°09'0 0.0
2020-Apr-04 23:29N 33°41' W 118°09'0 0.0
2020-Apr-04 21:59N 33°41' W 118°09'0 0.0
2020-Apr-04 21:29N 33°41' W 118°09'0 0.0
2020-Apr-04 19:59N 33°41' W 118°09'0 0.1
2020-Apr-04 19:29N 33°41' W 118°09'0 0.0
2020-Apr-04 16:59N 33°41' W 118°09'0 0.0
2020-Apr-04 15:59N 33°41' W 118°09'0 0.0
2020-Apr-04 14:59N 33°41' W 118°09'0 0.0
2020-Apr-04 14:29N 33°41' W 118°09'0 0.0
2020-Apr-04 13:59N 33°41' W 118°09'0 0.0
2020-Apr-04 13:29N 33°41' W 118°09'0 0.0
2020-Apr-04 11:29N 33°41' W 118°09'0 0.1
2020-Apr-04 10:59N 33°41' W 118°09'0 0.0
2020-Apr-04 10:23N 33°41' W 118°09'0 0.1
2020-Apr-04 09:59N 33°41' W 118°09'0 0.0
2020-Apr-04 07:29N 33°41' W 118°09'0 0.0
2020-Apr-04 03:59N 33°41' W 118°09'0 0.0
2020-Apr-04 02:59N 33°41' W 118°09'0 0.0
2020-Apr-04 02:29N 33°41' W 118°09'0 0.0
2020-Apr-04 00:59N 33°41' W 118°09'0 0.0
2020-Apr-03 22:29N 33°41' W 118°09'0 0.0
2020-Apr-03 21:59N 33°41' W 118°09'0 0.0
2020-Apr-03 21:26N 33°41' W 118°09'0 0.0
2020-Apr-03 20:29N 33°41' W 118°09'0 0.0
2020-Apr-03 19:29N 33°41' W 118°09'0 0.0
2020-Apr-03 16:29N 33°41' W 118°09'0 0.0
2020-Apr-03 15:59N 33°41' W 118°09'0 0.0
2020-Apr-03 15:29N 33°41' W 118°09'0 0.0
2020-Apr-03 12:53N 33°41' W 118°09'0 0.0
2020-Apr-03 10:59N 33°41' W 118°09'0 0.0
2020-Apr-03 09:59N 33°41' W 118°09'0 0.0
2020-Apr-03 07:59N 33°41' W 118°09'0 0.0
2020-Apr-03 07:29N 33°41' W 118°09'0 0.0
2020-Apr-03 05:59N 33°41' W 118°09'0 0.0
2020-Apr-03 05:29N 33°41' W 118°09'0 0.0
2020-Apr-03 04:59N 33°41' W 118°09'0 0.0
2020-Apr-03 03:59N 33°41' W 118°09'0 0.0
2020-Apr-03 03:29N 33°41' W 118°09'0 0.0
2020-Apr-03 02:26N 33°41' W 118°09'0 0.0
2020-Apr-02 21:29N 33°41' W 118°09'0 0.1
2020-Apr-02 20:59N 33°41' W 118°09'0 0.0
2020-Apr-02 19:23N 33°41' W 118°09'0 0.1
2020-Apr-02 18:56N 33°41' W 118°09'0 0.0
2020-Apr-02 18:29N 33°41' W 118°09'0 0.0
2020-Apr-02 15:28N 33°41' W 118°09'0 0.0
2020-Apr-02 13:28N 33°41' W 118°09'0 0.0
2020-Apr-02 11:58N 33°41' W 118°09'0 0.0
2020-Apr-02 10:58N 33°41' W 118°09'0 0.0
2020-Apr-02 10:28N 33°41' W 118°09'0 0.0
2020-Apr-02 09:28N 33°41' W 118°09'0 0.0
2020-Apr-02 07:55N 33°41' W 118°09'0 0.1
2020-Apr-02 07:28N 33°41' W 118°09'0 0.0
2020-Apr-02 05:28N 33°41' W 118°09'0 0.0
2020-Apr-02 02:28N 33°41' W 118°09'0 0.0
2020-Apr-02 01:58N 33°41' W 118°09'0 0.0
2020-Apr-01 22:58N 33°41' W 118°09'0 0.0
2020-Apr-01 22:28N 33°41' W 118°09'0 0.0
2020-Apr-01 21:28N 33°41' W 118°09'0 0.0
2020-Apr-01 20:58N 33°41' W 118°09'0 0.0
2020-Apr-01 18:28N 33°41' W 118°09'0 0.0
2020-Apr-01 17:58N 33°41' W 118°09'0 0.0
2020-Apr-01 16:58N 33°41' W 118°09'0 0.0
2020-Apr-01 16:28N 33°41' W 118°09'0 0.0
2020-Apr-01 10:28N 33°41' W 118°09'0 0.0
2020-Apr-01 07:55N 33°41' W 118°09'0 0.0
2020-Apr-01 07:28N 33°41' W 118°09'11 1.1
2020-Mar-31 22:00N 33°31' W 118°07'7 6.5
2020-Mar-31 21:00N 33°25' W 118°05'3 6.7
2020-Mar-31 20:30N 33°21' W 118°03'13 5.1
2020-Mar-31 18:00N 33°11' W 117°55'3 2.3
2020-Mar-31 16:30N 33°12' W 117°51'1 2.2
2020-Mar-31 16:00N 33°12' W 117°50'0 0.1
2020-Mar-31 11:30N 33°12' W 117°50'2 3.0
2020-Mar-31 11:00N 33°11' W 117°48'3 3.4
2020-Mar-31 10:00N 33°08' W 117°45'2 3.7
2020-Mar-31 09:30N 33°07' W 117°47'3 3.4
2020-Mar-31 08:30N 33°07' W 117°51'3 2.8
2020-Mar-31 07:30N 33°09' W 117°53'3 3.2
2020-Mar-31 06:30N 33°12' W 117°52'4 2.8
2020-Mar-31 05:00N 33°10' W 117°47'1 2.7
2020-Mar-31 04:30N 33°10' W 117°46'2 2.4
2020-Mar-31 03:30N 33°07' W 117°46'13 5.2
2020-Mar-31 01:00N 33°12' W 118°01'7 4.4
2020-Mar-30 23:30N 33°18' W 118°01'15 7.5
2020-Mar-30 21:30N 33°10' W 117°46'3 6.6
2020-Mar-30 21:00N 33°08' W 117°43'18 5.1
2020-Mar-30 17:30N 33°13' W 118°04'7 6.6
2020-Mar-30 16:30N 33°19' W 118°07'14 6.8
2020-Mar-30 14:30N 33°32' W 118°12'4 7.3
2020-Mar-30 14:00N 33°36' W 118°13'9 4.5
2020-Mar-30 11:58N 33°45' W 118°11'0 0.0
2020-Mar-30 10:22N 33°45' W 118°11'0 0.0
2020-Mar-30 08:28N 33°45' W 118°11'0 0.0
2020-Mar-30 07:58N 33°45' W 118°11'0 0.0
2020-Mar-30 05:58N 33°45' W 118°11'0 0.0
2020-Mar-30 05:28N 33°45' W 118°11'0 0.0
2020-Mar-30 04:25N 33°45' W 118°11'0 0.0
2020-Mar-30 01:58N 33°45' W 118°11'0 0.0
2020-Mar-30 01:28N 33°45' W 118°11'0 0.0
2020-Mar-29 22:28N 33°45' W 118°11'0 0.0
2020-Mar-29 21:28N 33°45' W 118°11'0 0.0
2020-Mar-29 20:28N 33°45' W 118°11'0 0.0
2020-Mar-29 19:28N 33°45' W 118°11'0 0.0
2020-Mar-29 18:58N 33°45' W 118°11'0 0.0
2020-Mar-29 17:58N 33°45' W 118°11'0 0.0
2020-Mar-29 17:28N 33°45' W 118°11'0 0.0
2020-Mar-29 16:28N 33°45' W 118°11'0 0.0
2020-Mar-29 14:28N 33°45' W 118°11'0 0.0
2020-Mar-29 13:28N 33°45' W 118°11'0 0.0
2020-Mar-29 12:55N 33°45' W 118°11'0 0.0
2020-Mar-29 12:25N 33°45' W 118°11'0 0.0
2020-Mar-29 11:28N 33°45' W 118°11'0 0.0
2020-Mar-29 08:58N 33°45' W 118°11'0 0.0
2020-Mar-29 03:28N 33°45' W 118°11'0 0.0
2020-Mar-29 02:28N 33°45' W 118°11'0 0.0
2020-Mar-28 23:58N 33°45' W 118°11'0 0.0
2020-Mar-28 23:28N 33°45' W 118°11'0 0.0
2020-Mar-28 20:58N 33°45' W 118°11'0 0.0
2020-Mar-28 19:28N 33°45' W 118°11'0 0.0
2020-Mar-28 15:28N 33°45' W 118°11'0 0.0
2020-Mar-28 12:28N 33°45' W 118°11'0 0.0
2020-Mar-28 11:55N 33°45' W 118°11'0 0.0
2020-Mar-28 11:28N 33°45' W 118°11'0 0.0
2020-Mar-28 08:28N 33°45' W 118°11'0 0.0
2020-Mar-28 06:28N 33°45' W 118°11'0 0.0
2020-Mar-28 05:58N 33°45' W 118°11'0 0.0
2020-Mar-28 02:58N 33°45' W 118°11'0 0.0
2020-Mar-28 02:25N 33°45' W 118°11'0 0.0
2020-Mar-28 01:58N 33°45' W 118°11'0 0.0
2020-Mar-28 00:58N 33°45' W 118°11'0 0.0
2020-Mar-27 22:28N 33°45' W 118°11'0 0.0
2020-Mar-27 21:28N 33°45' W 118°11'0 0.0
2020-Mar-27 16:58N 33°45' W 118°11'0 0.0
2020-Mar-27 16:28N 33°45' W 118°11'0 0.0
2020-Mar-27 15:55N 33°45' W 118°11'0 0.0
2020-Mar-27 14:58N 33°45' W 118°11'0 0.1
2020-Mar-27 13:30N 33°45' W 118°11'7 7.0
2020-Mar-27 12:30N 33°38' W 118°10'3 6.1
2020-Mar-27 12:00N 33°35' W 118°09'9 6.3
2020-Mar-27 10:30N 33°26' W 118°06'3 6.3
2020-Mar-27 10:00N 33°23' W 118°04'13 6.6
2020-Mar-27 08:00N 33°12' W 117°57'10 4.9
2020-Mar-27 06:00N 33°02' W 117°59'10 4.0
2020-Mar-27 03:30N 33°11' W 118°04'30 5.0
2020-Mar-26 21:30N 33°41' W 118°07'0 0.0
2020-Mar-26 21:00N 33°41' W 118°07'0 0.0
2020-Mar-26 18:00N 33°41' W 118°07'0 0.0
2020-Mar-26 17:27N 33°41' W 118°07'0 0.0
2020-Mar-26 15:00N 33°41' W 118°07'0 0.1
2020-Mar-26 13:27N 33°41' W 118°07'0 0.0
2020-Mar-26 11:00N 33°41' W 118°07'0 0.1
2020-Mar-26 10:00N 33°41' W 118°07'0 0.2
2020-Mar-26 09:30N 33°41' W 118°07'0 0.1
2020-Mar-26 08:00N 33°41' W 118°07'0 0.1
2020-Mar-26 07:30N 33°41' W 118°07'0 0.1
2020-Mar-26 07:00N 33°41' W 118°07'0 0.1
2020-Mar-26 06:30N 33°41' W 118°07'  
Track history (hours):
 
Tides and Currents Weather Stations Pressure Air Temp Water Temp Dewpoint Dewpoint Depression Visibility Wind Speed Wind Dir Waves Ship Positions

Carnival Miracle

Operator: Carnival Cruise Lines

Last reported at 2020-Apr-05 06:29 UTC. Time now 2020-Apr-05 06:36 UTC.
Position N 33°41' W 118°09'.

Type: Ship. MMSI: 35437000.

Date/timePositionNaut miles runAvg speedWind from/ knotsBaromVisibWave heightAir tempDewpointWater temp
2020-Apr-05 06:29N 33°41' W 118°09'6 1.7
2020-Apr-05 03:00N 33°36' W 118°06'6 3.8 220 / 51008.6 15.0 9.716.0
2020-Apr-05 01:29N 33°41' W 118°09'0 0.0
2020-Apr-04 23:29N 33°41' W 118°09'0 0.0
2020-Apr-04 21:59N 33°41' W 118°09'0 0.0
2020-Apr-04 21:29N 33°41' W 118°09'0 0.0
2020-Apr-04 19:59N 33°41' W 118°09'0 0.1
2020-Apr-04 19:29N 33°41' W 118°09'0 0.0
2020-Apr-04 16:59N 33°41' W 118°09'0 0.0
2020-Apr-04 15:59N 33°41' W 118°09'0 0.0
2020-Apr-04 14:59N 33°41' W 118°09'0 0.0
2020-Apr-04 14:29N 33°41' W 118°09'0 0.0
2020-Apr-04 13:59N 33°41' W 118°09'0 0.0
2020-Apr-04 13:29N 33°41' W 118°09'0 0.0
2020-Apr-04 11:29N 33°41' W 118°09'0 0.1
2020-Apr-04 10:59N 33°41' W 118°09'0 0.0
2020-Apr-04 10:23N 33°41' W 118°09'0 0.1
2020-Apr-04 09:59N 33°41' W 118°09'0 0.0
2020-Apr-04 07:29N 33°41' W 118°09'0 0.0
2020-Apr-04 03:59N 33°41' W 118°09'0 0.0
2020-Apr-04 02:59N 33°41' W 118°09'0 0.0
2020-Apr-04 02:29N 33°41' W 118°09'0 0.0
2020-Apr-04 00:59N 33°41' W 118°09'0 0.0
2020-Apr-03 22:29N 33°41' W 118°09'0 0.0
2020-Apr-03 21:59N 33°41' W 118°09'0 0.0
2020-Apr-03 21:26N 33°41' W 118°09'0 0.0
2020-Apr-03 20:29N 33°41' W 118°09'0 0.0
2020-Apr-03 19:29N 33°41' W 118°09'0 0.0
2020-Apr-03 16:29N 33°41' W 118°09'0 0.0
2020-Apr-03 15:59N 33°41' W 118°09'0 0.0
2020-Apr-03 15:29N 33°41' W 118°09'0 0.0
2020-Apr-03 12:53N 33°41' W 118°09'0 0.0
2020-Apr-03 10:59N 33°41' W 118°09'0 0.0
2020-Apr-03 09:59N 33°41' W 118°09'0 0.0
2020-Apr-03 07:59N 33°41' W 118°09'0 0.0
2020-Apr-03 07:29N 33°41' W 118°09'0 0.0
2020-Apr-03 05:59N 33°41' W 118°09'0 0.0
2020-Apr-03 05:29N 33°41' W 118°09'0 0.0
2020-Apr-03 04:59N 33°41' W 118°09'0 0.0
2020-Apr-03 03:59N 33°41' W 118°09'0 0.0
2020-Apr-03 03:29N 33°41' W 118°09'0 0.0
2020-Apr-03 02:26N 33°41' W 118°09'0 0.0
2020-Apr-02 21:29N 33°41' W 118°09'0 0.1
2020-Apr-02 20:59N 33°41' W 118°09'0 0.0
2020-Apr-02 19:23N 33°41' W 118°09'0 0.1
2020-Apr-02 18:56N 33°41' W 118°09'0 0.0
2020-Apr-02 18:29N 33°41' W 118°09'0 0.0
2020-Apr-02 15:28N 33°41' W 118°09'0 0.0
2020-Apr-02 13:28N 33°41' W 118°09'0 0.0
2020-Apr-02 11:58N 33°41' W 118°09'0 0.0
2020-Apr-02 10:58N 33°41' W 118°09'0 0.0
2020-Apr-02 10:28N 33°41' W 118°09'0 0.0
2020-Apr-02 09:28N 33°41' W 118°09'0 0.0
2020-Apr-02 07:55N 33°41' W 118°09'0 0.1
2020-Apr-02 07:28N 33°41' W 118°09'0 0.0
2020-Apr-02 05:28N 33°41' W 118°09'0 0.0
2020-Apr-02 02:28N 33°41' W 118°09'0 0.0
2020-Apr-02 01:58N 33°41' W 118°09'0 0.0
2020-Apr-01 22:58N 33°41' W 118°09'0 0.0
2020-Apr-01 22:28N 33°41' W 118°09'0 0.0
2020-Apr-01 21:28N 33°41' W 118°09'0 0.0
2020-Apr-01 20:58N 33°41' W 118°09'0 0.0
2020-Apr-01 18:28N 33°41' W 118°09'0 0.0
2020-Apr-01 17:58N 33°41' W 118°09'0 0.0
2020-Apr-01 16:58N 33°41' W 118°09'0 0.0
2020-Apr-01 16:28N 33°41' W 118°09'0 0.0
2020-Apr-01 10:28N 33°41' W 118°09'0 0.0
2020-Apr-01 07:55N 33°41' W 118°09'0 0.0
2020-Apr-01 07:28N 33°41' W 118°09'11 1.1
2020-Mar-31 22:00N 33°31' W 118°07'7 6.5
2020-Mar-31 21:00N 33°25' W 118°05'3 6.7
2020-Mar-31 20:30N 33°21' W 118°03'13 5.1
2020-Mar-31 18:00N 33°11' W 117°55'3 2.3
2020-Mar-31 16:30N 33°12' W 117°51'1 2.2
2020-Mar-31 16:00N 33°12' W 117°50'0 0.1
2020-Mar-31 11:30N 33°12' W 117°50'2 3.0
2020-Mar-31 11:00N 33°11' W 117°48'3 3.4
2020-Mar-31 10:00N 33°08' W 117°45'2 3.7
2020-Mar-31 09:30N 33°07' W 117°47'3 3.4
2020-Mar-31 08:30N 33°07' W 117°51'3 2.8
2020-Mar-31 07:30N 33°09' W 117°53'3 3.2
2020-Mar-31 06:30N 33°12' W 117°52'4 2.8
2020-Mar-31 05:00N 33°10' W 117°47'1 2.7
2020-Mar-31 04:30N 33°10' W 117°46'2 2.4
2020-Mar-31 03:30N 33°07' W 117°46'13 5.2
2020-Mar-31 01:00N 33°12' W 118°01'7 4.4
2020-Mar-30 23:30N 33°18' W 118°01'15 7.5
2020-Mar-30 21:30N 33°10' W 117°46'3 6.6
2020-Mar-30 21:00N 33°08' W 117°43'18 5.1
2020-Mar-30 17:30N 33°13' W 118°04'7 6.6
2020-Mar-30 16:30N 33°19' W 118°07'14 6.8
2020-Mar-30 14:30N 33°32' W 118°12'4 7.3
2020-Mar-30 14:00N 33°36' W 118°13'9 4.5
2020-Mar-30 11:58N 33°45' W 118°11'0 0.0
2020-Mar-30 10:22N 33°45' W 118°11'0 0.0
2020-Mar-30 08:28N 33°45' W 118°11'0 0.0
2020-Mar-30 07:58N 33°45' W 118°11'0 0.0
2020-Mar-30 05:58N 33°45' W 118°11'0 0.0
2020-Mar-30 05:28N 33°45' W 118°11'0 0.0
2020-Mar-30 04:25N 33°45' W 118°11'0 0.0
2020-Mar-30 01:58N 33°45' W 118°11'0 0.0
2020-Mar-30 01:28N 33°45' W 118°11'0 0.0
2020-Mar-29 22:28N 33°45' W 118°11'0 0.0
2020-Mar-29 21:28N 33°45' W 118°11'0 0.0
2020-Mar-29 20:28N 33°45' W 118°11'0 0.0
2020-Mar-29 19:28N 33°45' W 118°11'0 0.0
2020-Mar-29 18:58N 33°45' W 118°11'0 0.0
2020-Mar-29 17:58N 33°45' W 118°11'0 0.0
2020-Mar-29 17:28N 33°45' W 118°11'0 0.0
2020-Mar-29 16:28N 33°45' W 118°11'0 0.0
2020-Mar-29 14:28N 33°45' W 118°11'0 0.0
2020-Mar-29 13:28N 33°45' W 118°11'0 0.0
2020-Mar-29 12:55N 33°45' W 118°11'0 0.0
2020-Mar-29 12:25N 33°45' W 118°11'0 0.0
2020-Mar-29 11:28N 33°45' W 118°11'0 0.0
2020-Mar-29 08:58N 33°45' W 118°11'0 0.0
2020-Mar-29 03:28N 33°45' W 118°11'0 0.0
2020-Mar-29 02:28N 33°45' W 118°11'0 0.0
2020-Mar-28 23:58N 33°45' W 118°11'0 0.0
2020-Mar-28 23:28N 33°45' W 118°11'0 0.0
2020-Mar-28 20:58N 33°45' W 118°11'0 0.0
2020-Mar-28 19:28N 33°45' W 118°11'0 0.0
2020-Mar-28 15:28N 33°45' W 118°11'0 0.0
2020-Mar-28 12:28N 33°45' W 118°11'0 0.0
2020-Mar-28 11:55N 33°45' W 118°11'0 0.0
2020-Mar-28 11:28N 33°45' W 118°11'0 0.0
2020-Mar-28 08:28N 33°45' W 118°11'0 0.0
2020-Mar-28 06:28N 33°45' W 118°11'0 0.0
2020-Mar-28 05:58N 33°45' W 118°11'0 0.0
2020-Mar-28 02:58N 33°45' W 118°11'0 0.0
2020-Mar-28 02:25N 33°45' W 118°11'0 0.0
2020-Mar-28 01:58N 33°45' W 118°11'0 0.0
2020-Mar-28 00:58N 33°45' W 118°11'0 0.0
2020-Mar-27 22:28N 33°45' W 118°11'0 0.0
2020-Mar-27 21:28N 33°45' W 118°11'0 0.0
2020-Mar-27 16:58N 33°45' W 118°11'0 0.0
2020-Mar-27 16:28N 33°45' W 118°11'0 0.0
2020-Mar-27 15:55N 33°45' W 118°11'0 0.0
2020-Mar-27 14:58N 33°45' W 118°11'0 0.1
2020-Mar-27 13:30N 33°45' W 118°11'7 7.0
2020-Mar-27 12:30N 33°38' W 118°10'3 6.1
2020-Mar-27 12:00N 33°35' W 118°09'9 6.3
2020-Mar-27 10:30N 33°26' W 118°06'3 6.3
2020-Mar-27 10:00N 33°23' W 118°04'13 6.6
2020-Mar-27 08:00N 33°12' W 117°57'10 4.9
2020-Mar-27 06:00N 33°02' W 117°59'10 4.0
2020-Mar-27 03:30N 33°11' W 118°04'30 5.0
2020-Mar-26 21:30N 33°41' W 118°07'0 0.0
2020-Mar-26 21:00N 33°41' W 118°07'0 0.0
2020-Mar-26 18:00N 33°41' W 118°07'0 0.0
2020-Mar-26 17:27N 33°41' W 118°07'0 0.0
2020-Mar-26 15:00N 33°41' W 118°07'0 0.1
2020-Mar-26 13:27N 33°41' W 118°07'0 0.0
2020-Mar-26 11:00N 33°41' W 118°07'0 0.1
2020-Mar-26 10:00N 33°41' W 118°07'0 0.2
2020-Mar-26 09:30N 33°41' W 118°07'0 0.1
2020-Mar-26 08:00N 33°41' W 118°07'0 0.1
2020-Mar-26 07:30N 33°41' W 118°07'0 0.1
2020-Mar-26 07:00N 33°41' W 118°07'0 0.1
2020-Mar-26 06:30N 33°41' W 118°07'  

Dump ship's entire track history